DAUI

Details ICAO DAUI (INZ)
Name IN SALAH
Region Algeria
Timezone Africa/Algiers (UTC+1.0)
Plans Departing 25
Arriving 35
Stats Elevation 896 ft / 273 m (AMSL)
Location 27.251000° 2.512020°
Runways 1
Magnetic Variation 0.570° E
Sunrise 2019-05-20 05:00:49 UTC / 2019-05-20 06:00:49 Local
Sunset 2019-05-20 18:34:57 UTC / 2019-05-20 19:34:57 Local
Advertisement - Login to hide

Runways

ID Width Length Bearing (true/mag) Surface Threshold Overrun Markings Lighting
05 148 ft / 45 m 9,827 ft / 2,995 m 50.81° / 50.24° ASPHALT 0 ft / 0 m 150 ft / 46 m APP EDGE THRESHOLD
23 148 ft / 45 m 9,827 ft / 2,995 m 230.82° / 230.25° ASPHALT 0 ft / 0 m 150 ft / 46 m APP EDGE THRESHOLD

Map

Weather


0- 5 10 15 20 25 30 35+ Temperature / °C

Clouds and Precipitation
Forecast for 2019-05-20 18:00 UTC. Updated 37 minutes ago

Ground ~20,000 ft ~40,000 ft Winds

METAR

DAUI 201600Z 12005KT 6000 NSC 37/09 Q1007

TAF

TAF TAF DAUI 201100Z 2012/2112 06008KT 8000 NSC BECMG 2013/2016 26015KT PROB30 TEMPO 2020/2022 26020G30KT 3000 DRSA FEW040CB PROB40 TEMPO 2020/2106 FEW046CB BECMG 2100/2103 08012KT PROB30 TEMPO 2106/2112 5000 -TSRA FEW046CB

Frequencies

Tower 118.10 MHz
Tower 119.70 MHz
Warning: Do not use this data for real-world aviation or navigation. No guarantee of current accuracy is given.